Time;durP1;ratioP1;P1;durP2;ratioP2;P2;SDS_P1;SDS_P2;PMS_P1;PMS_P2;Temp;Humidity;BMP_temperature;BMP_pressure;BME280_temperature;BME280_humidity;BME280_pressure;Samples;Min_cycle;Max_cycle;Signal;HPM_P1;HPM_P2
2023/07/29 00:01:16;;;;;;;8.67;4.93;;;23.90;95.10;;;;;;5025943;28;20112;-71
2023/07/29 00:03:42;;;;;;;6.80;4.60;;;23.80;95.00;;;;;;5025194;28;20041;-72
2023/07/29 00:06:09;;;;;;;8.73;4.97;;;23.70;95.40;;;;;;5031169;28;20029;-71
2023/07/29 00:08:35;;;;;;;5.60;4.70;;;23.60;96.00;;;;;;5030635;28;20025;-70
2023/07/29 00:11:01;;;;;;;10.97;5.03;;;23.60;96.50;;;;;;5030819;28;20616;-71
2023/07/29 00:13:27;;;;;;;6.57;4.57;;;23.60;96.70;;;;;;5031289;28;20037;-72
2023/07/29 00:15:55;;;;;;;7.88;4.68;;;23.60;96.80;;;;;;5031467;28;20041;-75
2023/07/29 00:18:21;;;;;;;6.50;4.55;;;23.50;96.60;;;;;;5031135;28;20091;-75
2023/07/29 00:20:46;;;;;;;7.70;4.18;;;23.60;96.40;;;;;;5030950;28;20038;-73
2023/07/29 00:23:12;;;;;;;7.87;4.77;;;23.50;96.80;;;;;;5031027;28;20036;-71
2023/07/29 00:25:38;;;;;;;7.70;4.30;;;23.50;96.60;;;;;;5025820;28;20037;-71
2023/07/29 00:28:03;;;;;;;6.33;4.53;;;23.50;97.20;;;;;;5029806;28;20116;-72
2023/07/29 00:30:29;;;;;;;7.90;4.30;;;23.40;97.10;;;;;;5030595;28;20029;-70
2023/07/29 00:32:55;;;;;;;9.30;4.63;;;23.40;97.40;;;;;;5028709;28;20579;-71
2023/07/29 00:35:23;;;;;;;5.43;4.63;;;23.30;98.70;;;;;;5030635;28;20039;-70
2023/07/29 00:37:49;;;;;;;8.68;4.57;;;23.20;98.30;;;;;;5028597;28;20045;-71
2023/07/29 00:40:22;;;;;;;8.20;4.60;;;23.10;98.20;;;;;;5029962;28;20028;-70
2023/07/29 00:42:49;;;;;;;6.05;4.60;;;23.10;97.30;;;;;;5027837;28;20033;-70
2023/07/29 00:45:15;;;;;;;5.57;4.55;;;23.10;97.90;;;;;;5029117;28;20021;-70
2023/07/29 00:47:42;;;;;;;10.13;4.68;;;23.10;97.30;;;;;;5031076;28;20045;-70
2023/07/29 00:50:11;;;;;;;5.88;4.25;;;23.00;98.00;;;;;;5027262;28;20036;-72
2023/07/29 00:52:37;;;;;;;6.03;4.30;;;23.10;98.20;;;;;;5028179;28;20041;-73
2023/07/29 00:55:03;;;;;;;8.48;4.90;;;23.10;96.40;;;;;;5029831;28;20025;-73
2023/07/29 00:57:30;;;;;;;6.80;4.15;;;23.00;97.80;;;;;;5029095;28;20456;-73
2023/07/29 00:59:56;;;;;;;6.55;4.70;;;22.90;98.60;;;;;;5031006;28;20480;-71
2023/07/29 01:02:22;;;;;;;;;;;22.90;97.80;;;;;;5030811;28;20037;-71
2023/07/29 01:04:55;;;;;;;8.40;4.47;;;22.90;98.20;;;;;;5028190;28;20106;-72
2023/07/29 01:07:20;;;;;;;5.60;3.78;;;23.00;96.50;;;;;;5030474;28;20029;-72
2023/07/29 01:10:01;;;;;;;10.20;4.40;;;22.90;97.20;;;;;;5029487;28;20522;-71
2023/07/29 01:12:57;;;;;;;5.00;4.32;;;22.90;96.40;;;;;;5025524;28;20057;-71
2023/07/29 01:15:48;;;;;;;6.88;3.70;;;22.90;97.30;;;;;;5034944;28;20025;-71
2023/07/29 01:18:29;;;;;;;5.10;4.00;;;23.00;96.60;;;;;;5029716;28;20259;-71
2023/07/29 01:21:07;;;;;;;7.63;4.50;;;23.00;96.00;;;;;;5028735;28;20120;-71
2023/07/29 01:23:34;;;;;;;8.20;4.47;;;23.10;95.30;;;;;;5029791;28;20029;-72
2023/07/29 01:26:00;;;;;;;6.78;3.92;;;23.20;95.30;;;;;;5025471;28;20455;-72
2023/07/29 01:28:26;;;;;;;9.68;4.35;;;23.00;96.30;;;;;;5025176;28;20018;-71
2023/07/29 01:30:57;;;;;;;;;;;23.00;95.90;;;;;;5029165;28;20067;-71
2023/07/29 01:33:30;;;;;;;7.60;4.18;;;23.00;95.90;;;;;;5028418;28;19952;-72
2023/07/29 01:36:02;;;;;;;6.30;3.90;;;22.90;95.90;;;;;;5027658;28;20021;-72
2023/07/29 01:38:33;;;;;;;5.93;4.13;;;22.80;96.30;;;;;;5028190;28;20179;-71
2023/07/29 01:41:01;;;;;;;6.40;3.92;;;22.80;96.20;;;;;;5028288;28;20083;-72
2023/07/29 01:43:30;;;;;;;9.82;4.95;;;22.70;96.40;;;;;;5021907;28;20120;-72
2023/07/29 01:45:56;;;;;;;8.65;4.28;;;22.80;96.10;;;;;;5029556;28;20021;-73
2023/07/29 01:48:22;;;;;;;7.63;4.35;;;22.60;96.20;;;;;;5027476;28;20517;-71
2023/07/29 01:50:48;;;;;;;9.73;4.50;;;22.70;96.10;;;;;;5028174;28;20037;-73
2023/07/29 01:53:17;;;;;;;6.97;3.97;;;22.60;96.90;;;;;;5024650;28;20075;-71
2023/07/29 01:55:44;;;;;;;8.27;4.25;;;22.60;96.70;;;;;;5026336;28;20087;-72
2023/07/29 01:58:10;;;;;;;9.10;4.18;;;22.70;96.00;;;;;;5029407;28;20032;-72
2023/07/29 02:00:35;;;;;;;7.43;4.35;;;22.70;95.80;;;;;;5028980;28;20573;-74
2023/07/29 02:03:01;;;;;;;7.33;4.17;;;22.60;96.20;;;;;;5029943;28;20410;-74
2023/07/29 02:05:27;;;;;;;5.80;4.80;;;22.50;96.30;;;;;;5033898;28;20160;-72
2023/07/29 02:07:52;;;;;;;6.07;4.07;;;22.50;96.60;;;;;;5029631;28;20447;-71
2023/07/29 02:10:18;;;;;;;7.17;4.40;;;22.40;96.50;;;;;;5023656;28;20025;-72
2023/07/29 02:12:43;;;;;;;6.97;4.43;;;22.40;96.30;;;;;;5027429;28;20449;-73
2023/07/29 02:15:09;;;;;;;12.07;4.03;;;22.50;96.00;;;;;;5027674;28;20029;-71
2023/07/29 02:17:35;;;;;;;5.90;3.53;;;22.50;95.40;;;;;;5028313;28;20033;-73
2023/07/29 02:20:01;;;;;;;12.23;4.32;;;22.60;95.60;;;;;;5024562;28;20504;-73
2023/07/29 02:22:26;;;;;;;5.97;3.95;;;22.50;95.80;;;;;;5024504;28;20033;-74
2023/07/29 02:24:52;;;;;;;10.20;4.53;;;22.40;95.60;;;;;;5024482;28;20041;-71
2023/07/29 02:27:18;;;;;;;7.07;3.83;;;22.30;95.40;;;;;;5028019;28;20018;-72
2023/07/29 02:29:43;;;;;;;5.03;3.73;;;22.30;95.20;;;;;;5024820;28;20040;-74
2023/07/29 02:32:09;;;;;;;6.30;4.53;;;22.20;94.90;;;;;;5024809;28;20113;-74
2023/07/29 02:34:34;;;;;;;5.60;4.20;;;22.20;94.70;;;;;;5025725;28;20092;-72
2023/07/29 02:37:00;;;;;;;5.07;4.03;;;22.20;94.60;;;;;;5024984;28;20040;-71
2023/07/29 02:39:25;;;;;;;5.63;3.83;;;22.30;94.30;;;;;;5027916;28;20483;-73
2023/07/29 02:41:51;;;;;;;9.67;4.23;;;22.20;94.00;;;;;;5028709;28;20037;-72
2023/07/29 02:44:17;;;;;;;5.53;3.77;;;22.20;93.90;;;;;;5027203;28;20320;-72
2023/07/29 02:46:43;;;;;;;8.15;3.72;;;22.20;93.70;;;;;;5031531;28;20025;-73
2023/07/29 02:49:08;;;;;;;5.20;3.70;;;22.20;93.30;;;;;;5023401;28;20405;-73
2023/07/29 02:51:34;;;;;;;4.60;3.57;;;22.10;93.30;;;;;;5027666;28;20033;-73
2023/07/29 02:53:59;;;;;;;5.07;3.13;;;22.00;93.70;;;;;;5026061;28;20532;-73
2023/07/29 02:56:25;;;;;;;5.93;3.40;;;22.00;93.70;;;;;;5029698;28;20025;-73
2023/07/29 02:58:53;;;;;;;4.97;3.10;;;22.00;92.70;;;;;;5026961;28;20021;-72
2023/07/29 03:01:19;;;;;;;4.53;3.35;;;22.00;92.70;;;;;;5026043;28;20052;-73
2023/07/29 03:03:45;;;;;;;6.28;3.88;;;22.00;92.20;;;;;;5025267;28;20045;-74
2023/07/29 03:06:13;;;;;;;5.30;3.77;;;22.10;91.90;;;;;;5028900;28;20025;-73
2023/07/29 03:08:39;;;;;;;6.72;3.45;;;22.10;92.30;;;;;;5030570;28;20020;-73
2023/07/29 03:11:10;;;;;;;4.97;3.13;;;22.00;92.70;;;;;;5025074;28;20033;-72
2023/07/29 03:13:37;;;;;;;4.28;3.40;;;21.90;92.80;;;;;;5024121;28;20036;-72
2023/07/29 03:16:10;;;;;;;9.55;3.88;;;21.90;92.50;;;;;;5027861;28;20030;-73
2023/07/29 03:18:36;;;;;;;3.88;3.03;;;21.80;93.60;;;;;;5028720;28;20037;-74
2023/07/29 03:21:02;;;;;;;6.72;3.65;;;21.80;91.90;;;;;;5027341;28;20561;-72
2023/07/29 03:23:29;;;;;;;6.20;3.13;;;21.80;92.60;;;;;;5025342;28;21432;-72
2023/07/29 03:25:56;;;;;;;10.73;5.20;;;21.70;93.00;;;;;;5028683;28;20026;-72
2023/07/29 03:28:29;;;;;;;4.93;3.60;;;21.70;92.70;;;;;;5024891;28;20497;-73
2023/07/29 03:30:56;;;;;;;4.80;3.55;;;21.70;93.30;;;;;;5018941;28;20060;-74
2023/07/29 03:33:22;;;;;;;5.65;3.38;;;21.70;93.30;;;;;;5025410;28;20045;-71
2023/07/29 03:35:49;;;;;;;7.38;3.30;;;21.60;93.20;;;;;;5023301;28;20398;-74
2023/07/29 03:38:14;;;;;;;4.80;3.20;;;21.60;94.10;;;;;;5023626;28;20525;-74
2023/07/29 03:40:41;;;;;;;9.55;3.42;;;21.50;94.30;;;;;;5023975;28;20108;-72
2023/07/29 03:43:07;;;;;;;4.20;3.05;;;21.40;92.80;;;;;;5022121;28;20493;-73
2023/07/29 03:45:34;;;;;;;5.00;3.58;;;21.50;92.10;;;;;;5028828;28;20025;-73
2023/07/29 03:47:59;;;;;;;;;;;21.50;91.60;;;;;;5027175;28;20033;-72
2023/07/29 03:50:25;;;;;;;8.23;2.97;;;21.50;92.90;;;;;;5024668;28;19915;-75
2023/07/29 03:52:51;;;;;;;4.13;3.22;;;21.40;92.70;;;;;;5027620;28;20037;-71
2023/07/29 03:55:16;;;;;;;7.53;3.23;;;21.40;92.60;;;;;;5028853;28;20034;-73
2023/07/29 03:57:42;;;;;;;7.30;3.43;;;21.30;93.20;;;;;;5026969;28;20494;-73
2023/07/29 04:00:11;;;;;;;6.43;3.60;;;21.30;92.30;;;;;;5027403;28;20022;-74
2023/07/29 04:02:37;;;;;;;9.27;3.33;;;21.20;93.60;;;;;;5023554;28;20030;-75
2023/07/29 04:05:04;;;;;;;4.30;3.20;;;21.20;93.60;;;;;;5023291;28;20504;-72
2023/07/29 04:07:30;;;;;;;;;;;21.70;91.10;;;;;;5024894;28;20030;-73
2023/07/29 04:09:55;;;;;;;5.13;3.47;;;21.70;91.50;;;;;;5026826;28;19916;-72
2023/07/29 04:12:21;;;;;;;5.37;3.40;;;21.60;91.60;;;;;;5027503;28;20098;-72
2023/07/29 04:14:47;;;;;;;5.82;3.38;;;21.60;92.60;;;;;;5024377;28;20033;-73
2023/07/29 04:17:13;;;;;;;5.07;3.70;;;21.50;92.60;;;;;;5026349;28;20377;-71
2023/07/29 04:19:38;;;;;;;4.07;3.53;;;21.40;93.20;;;;;;5029479;28;20036;-72
2023/07/29 04:22:04;;;;;;;5.10;3.38;;;21.40;94.30;;;;;;5029465;28;20493;-73
2023/07/29 04:24:30;;;;;;;3.60;3.03;;;21.40;93.90;;;;;;5023313;28;20030;-73
2023/07/29 04:26:55;;;;;;;5.37;2.90;;;21.40;94.20;;;;;;5027853;28;20037;-71
2023/07/29 04:29:22;;;;;;;7.20;3.33;;;21.40;94.90;;;;;;5024512;28;20512;-75
2023/07/29 04:31:51;;;;;;;5.38;3.35;;;21.40;93.90;;;;;;5020805;28;20124;-72
2023/07/29 04:34:20;;;;;;;4.50;3.33;;;21.40;93.80;;;;;;5025104;28;20017;-70
2023/07/29 04:36:46;;;;;;;6.10;3.38;;;21.40;94.30;;;;;;5024690;28;20027;-73
2023/07/29 04:39:12;;;;;;;4.82;2.88;;;21.50;93.70;;;;;;5022567;28;20022;-73
2023/07/29 04:41:38;;;;;;;7.83;3.63;;;21.50;96.10;;;;;;5026744;28;20048;-73
2023/07/29 04:44:03;;;;;;;4.67;3.13;;;21.50;95.10;;;;;;5026846;28;20099;-73
2023/07/29 04:46:29;;;;;;;3.50;2.90;;;21.50;95.30;;;;;;5030986;28;20040;-73
2023/07/29 04:48:55;;;;;;;4.18;3.13;;;21.60;94.60;;;;;;5026285;28;20068;-73
2023/07/29 04:51:21;;;;;;;5.13;3.80;;;21.60;94.90;;;;;;5025857;28;20044;-73
2023/07/29 04:53:46;;;;;;;3.75;3.13;;;21.70;93.90;;;;;;5029903;28;20614;-73
2023/07/29 04:56:12;;;;;;;5.97;3.63;;;21.70;93.10;;;;;;5028429;28;20040;-73
2023/07/29 04:58:38;;;;;;;4.83;3.27;;;21.90;92.70;;;;;;5028180;28;20022;-74
2023/07/29 05:01:04;;;;;;;8.90;3.22;;;22.00;93.50;;;;;;5030593;28;20025;-72
2023/07/29 05:03:30;;;;;;;5.60;3.40;;;22.10;92.80;;;;;;5031118;28;20398;-71
2023/07/29 05:05:57;;;;;;;4.88;3.80;;;22.10;93.60;;;;;;5043983;28;20112;-73
2023/07/29 05:08:22;;;;;;;10.10;3.45;;;22.20;93.40;;;;;;5029023;28;20033;-72
2023/07/29 05:10:52;;;;;;;7.57;3.58;;;22.40;90.30;;;;;;5029418;28;20025;-70
2023/07/29 05:13:18;;;;;;;7.07;3.92;;;22.30;91.80;;;;;;5032414;28;20034;-71
2023/07/29 05:15:44;;;;;;;;;;;22.30;91.80;;;;;;5029291;28;20685;-74
2023/07/29 05:18:10;;;;;;;6.47;3.33;;;22.20;93.30;;;;;;5029013;28;19909;-75
2023/07/29 05:20:36;;;;;;;6.45;3.67;;;22.10;93.40;;;;;;5022758;28;20026;-70
2023/07/29 05:23:01;;;;;;;4.53;3.37;;;22.30;93.90;;;;;;5010755;28;20032;-70
2023/07/29 05:25:27;;;;;;;6.33;3.83;;;22.10;93.30;;;;;;5010624;28;20052;-71
2023/07/29 05:27:53;;;;;;;6.87;4.13;;;22.20;94.10;;;;;;5014078;28;20029;-71
2023/07/29 05:30:19;;;;;;;8.13;3.73;;;22.30;94.20;;;;;;5026748;28;20636;-72
2023/07/29 05:32:44;;;;;;;5.57;3.53;;;22.40;92.80;;;;;;5029808;28;20116;-71
2023/07/29 05:35:10;;;;;;;4.83;3.40;;;22.60;93.50;;;;;;5028519;28;20033;-71
2023/07/29 05:37:42;;;;;;;4.95;3.45;;;23.70;91.50;;;;;;5028360;28;20033;-72
2023/07/29 05:40:08;;;;;;;4.78;3.20;;;24.60;89.20;;;;;;5028114;28;20119;-72
2023/07/29 05:42:35;;;;;;;4.03;3.33;;;25.50;80.80;;;;;;5035818;28;20077;-73
2023/07/29 05:45:01;;;;;;;6.13;3.40;;;24.70;79.90;;;;;;5032461;28;20515;-72
2023/07/29 05:47:27;;;;;;;3.95;3.30;;;24.20;83.50;;;;;;5040573;28;20044;-72
2023/07/29 05:49:52;;;;;;;5.38;3.58;;;24.10;87.30;;;;;;5035364;28;20025;-74
2023/07/29 05:52:18;;;;;;;4.97;3.23;;;24.10;83.40;;;;;;5032231;28;20045;-73
2023/07/29 05:54:44;;;;;;;5.57;3.72;;;23.60;85.30;;;;;;5032502;28;20083;-72
2023/07/29 05:57:11;;;;;;;5.22;3.90;;;25.40;84.30;;;;;;5031034;28;20041;-73
2023/07/29 05:59:37;;;;;;;5.75;3.65;;;26.00;82.30;;;;;;5023960;28;20232;-73
2023/07/29 06:02:03;;;;;;;7.18;3.20;;;26.00;79.10;;;;;;5026716;28;20122;-71
2023/07/29 06:04:29;;;;;;;5.47;3.85;;;25.20;83.10;;;;;;5030559;28;20060;-72
2023/07/29 06:06:55;;;;;;;6.80;3.92;;;25.10;85.20;;;;;;5039013;28;20036;-72
2023/07/29 06:09:21;;;;;;;;;;;25.60;81.40;;;;;;5028842;28;20029;-74
2023/07/29 06:11:47;;;;;;;19.88;7.68;;;26.60;83.50;;;;;;5034342;28;19928;-73
2023/07/29 06:14:13;;;;;;;5.40;4.05;;;26.10;78.60;;;;;;5037164;28;20064;-73
2023/07/29 06:16:38;;;;;;;5.80;3.33;;;25.50;82.30;;;;;;5033428;28;20037;-73
2023/07/29 06:19:04;;;;;;;3.83;2.95;;;25.20;83.90;;;;;;5029513;28;20112;-73
2023/07/29 06:21:30;;;;;;;10.80;5.47;;;25.10;80.70;;;;;;5038627;28;20048;-72
2023/07/29 06:23:56;;;;;;;4.30;3.42;;;24.80;86.60;;;;;;5037557;28;20033;-71
2023/07/29 06:26:22;;;;;;;4.55;3.50;;;24.80;89.00;;;;;;5033099;28;20041;-73
2023/07/29 06:28:47;;;;;;;9.25;3.63;;;24.60;87.50;;;;;;5027900;28;20029;-72
2023/07/29 06:31:13;;;;;;;8.27;3.60;;;24.50;85.90;;;;;;5027503;28;20044;-73
2023/07/29 06:33:38;;;;;;;6.63;3.20;;;24.50;89.50;;;;;;5026726;28;20499;-74
2023/07/29 06:36:04;;;;;;;4.97;3.70;;;24.50;87.60;;;;;;5024811;28;20041;-73
2023/07/29 06:38:30;;;;;;;10.15;4.57;;;24.30;90.50;;;;;;5026600;28;20029;-73
2023/07/29 06:40:56;;;;;;;8.07;3.60;;;24.10;89.80;;;;;;5027751;28;20442;-73
2023/07/29 06:43:21;;;;;;;9.17;3.47;;;24.10;90.70;;;;;;5031052;28;20051;-74
2023/07/29 06:45:47;;;;;;;7.90;4.20;;;24.10;90.90;;;;;;5038484;28;20287;-74
2023/07/29 06:48:12;;;;;;;7.03;3.90;;;24.30;89.30;;;;;;5036744;28;20454;-70
2023/07/29 06:50:38;;;;;;;4.85;3.92;;;24.30;90.20;;;;;;5037678;28;20057;-73
2023/07/29 06:53:04;;;;;;;5.93;3.67;;;24.30;90.70;;;;;;5019608;28;20524;-72
2023/07/29 06:55:29;;;;;;;7.13;4.30;;;24.00;91.40;;;;;;5025192;28;20029;-71
2023/07/29 06:57:55;;;;;;;6.23;3.90;;;23.90;91.90;;;;;;5032637;28;20296;-73
2023/07/29 07:00:21;;;;;;;5.40;3.60;;;23.60;91.80;;;;;;5031826;28;20768;-70
2023/07/29 07:02:46;;;;;;;9.63;3.50;;;23.70;92.80;;;;;;5030946;28;20040;-75
2023/07/29 07:05:12;;;;;;;8.20;3.70;;;23.50;91.90;;;;;;5029147;28;20092;-75
2023/07/29 07:07:37;;;;;;;6.23;4.07;;;23.60;91.30;;;;;;5033799;28;20543;-74
2023/07/29 07:10:03;;;;;;;5.93;4.43;;;23.40;92.80;;;;;;5030510;28;20067;-72
2023/07/29 07:12:29;;;;;;;9.25;4.72;;;23.40;92.50;;;;;;5031143;28;20127;-75
2023/07/29 07:14:54;;;;;;;9.90;5.23;;;23.50;93.50;;;;;;5039781;28;20108;-75
2023/07/29 07:17:20;;;;;;;14.77;4.27;;;23.50;94.90;;;;;;5033593;28;20037;-70
2023/07/29 07:19:46;;;;;;;7.28;3.75;;;23.70;93.30;;;;;;5028874;28;20030;-74
2023/07/29 07:22:12;;;;;;;6.03;3.80;;;24.10;92.50;;;;;;5026210;28;20028;-71
2023/07/29 07:24:37;;;;;;;5.30;3.63;;;24.30;92.00;;;;;;5030523;28;20265;-74
2023/07/29 07:27:03;;;;;;;4.68;3.38;;;24.60;91.50;;;;;;5029263;28;20413;-71
2023/07/29 07:29:30;;;;;;;7.95;3.85;;;24.90;86.90;;;;;;5034468;28;20452;-73
2023/07/29 07:31:56;;;;;;;;;;;25.20;85.80;;;;;;5033012;28;20037;-74
2023/07/29 07:34:22;;;;;;;6.57;4.00;;;25.40;83.90;;;;;;5029557;28;19916;-74
2023/07/29 07:36:47;;;;;;;4.20;3.40;;;25.30;84.40;;;;;;5032040;28;20044;-73
2023/07/29 07:39:13;;;;;;;3.47;2.90;;;25.10;83.70;;;;;;5028067;28;20040;-73
2023/07/29 07:41:40;;;;;;;4.50;3.45;;;24.80;85.20;;;;;;5027417;28;20304;-73
2023/07/29 07:44:05;;;;;;;;;;;24.80;87.40;;;;;;5037853;28;20079;-74
2023/07/29 07:46:31;;;;;;;5.45;3.35;;;24.60;89.50;;;;;;5038356;28;20400;-72
2023/07/29 07:48:57;;;;;;;4.40;3.17;;;24.40;87.30;;;;;;5035541;28;20075;-71
2023/07/29 07:51:22;;;;;;;4.90;3.63;;;24.30;86.50;;;;;;5036774;28;20486;-72
2023/07/29 07:53:48;;;;;;;4.67;3.33;;;24.30;86.40;;;;;;5030680;28;20348;-73
2023/07/29 07:56:15;;;;;;;;;;;24.00;87.20;;;;;;5036359;28;20556;-74
2023/07/29 07:58:40;;;;;;;7.07;3.58;;;24.20;90.00;;;;;;5028423;28;20357;-72
2023/07/29 08:01:08;;;;;;;6.78;3.40;;;24.30;90.80;;;;;;5028664;28;20060;-72
2023/07/29 08:03:34;;;;;;;7.85;3.35;;;24.30;91.70;;;;;;5031796;28;20439;-72
2023/07/29 08:06:00;;;;;;;4.03;3.50;;;24.40;93.10;;;;;;5031236;28;20037;-73
2023/07/29 08:08:27;;;;;;;8.15;4.07;;;24.50;91.30;;;;;;5026191;28;20031;-73
2023/07/29 08:10:57;;;;;;;4.57;3.58;;;24.60;93.00;;;;;;5036825;28;20566;-72
2023/07/29 08:13:23;;;;;;;5.15;3.75;;;24.70;92.00;;;;;;5031065;28;20448;-73
2023/07/29 08:15:50;;;;;;;5.15;3.47;;;24.80;90.60;;;;;;5035740;28;20501;-73
2023/07/29 08:18:16;;;;;;;5.45;3.60;;;24.80;92.10;;;;;;5036945;28;20032;-73
2023/07/29 08:20:55;;;;;;;4.25;3.75;;;24.80;92.20;;;;;;5032973;28;20044;-73
2023/07/29 08:23:21;;;;;;;4.38;3.10;;;24.70;89.90;;;;;;5026717;28;20048;-71
2023/07/29 08:26:01;;;;;;;5.72;4.10;;;24.80;90.90;;;;;;5034963;28;20511;-73
2023/07/29 08:28:32;;;;;;;4.95;3.30;;;24.70;92.90;;;;;;5038387;28;20045;-73
2023/07/29 08:30:58;;;;;;;7.75;3.90;;;24.70;92.40;;;;;;5036933;28;20496;-73
2023/07/29 08:33:24;;;;;;;7.50;3.65;;;24.60;92.30;;;;;;5041872;28;20534;-73
2023/07/29 08:35:50;;;;;;;4.65;3.67;;;24.70;92.40;;;;;;5034849;28;20025;-72
2023/07/29 08:38:16;;;;;;;5.75;3.58;;;24.70;92.70;;;;;;5027836;28;20029;-73
2023/07/29 08:41:11;;;;;;;5.30;3.80;;;24.60;92.60;;;;;;5028748;28;20037;-71
2023/07/29 08:43:39;;;;;;;15.35;5.70;;;24.50;93.00;;;;;;5030038;28;20291;-70
2023/07/29 08:46:06;;;;;;;8.38;4.90;;;24.70;92.60;;;;;;5031143;28;20036;-72
2023/07/29 08:48:39;;;;;;;10.00;4.57;;;24.90;92.60;;;;;;5032103;28;20541;-72
2023/07/29 08:51:07;;;;;;;9.07;4.22;;;25.00;92.80;;;;;;5030643;28;20033;-71
2023/07/29 08:53:33;;;;;;;5.82;3.92;;;25.00;91.70;;;;;;5031115;28;20127;-71
2023/07/29 08:55:59;;;;;;;;;;;25.00;93.40;;;;;;5032609;28;20033;-71
2023/07/29 08:58:25;;;;;;;5.68;4.35;;;25.00;93.20;;;;;;5043457;28;19920;-70
2023/07/29 09:00:51;;;;;;;7.22;4.68;;;24.70;95.00;;;;;;5042459;28;20033;-71
2023/07/29 09:03:16;;;;;;;6.70;4.60;;;24.70;94.10;;;;;;5035617;28;20505;-72
2023/07/29 09:05:42;;;;;;;10.15;4.65;;;24.60;95.90;;;;;;5036350;28;20048;-73
2023/07/29 09:08:08;;;;;;;12.53;5.07;;;24.40;95.60;;;;;;5038921;28;20022;-72
2023/07/29 09:10:37;;;;;;;7.68;4.45;;;24.40;95.40;;;;;;5032943;28;20283;-72
2023/07/29 09:13:03;;;;;;;9.13;5.45;;;24.20;96.00;;;;;;5030184;28;20047;-72
2023/07/29 09:15:31;;;;;;;7.57;4.57;;;24.40;96.60;;;;;;5035129;28;20086;-74
2023/07/29 09:17:58;;;;;;;13.55;4.93;;;24.30;96.50;;;;;;5024894;28;20041;-72
2023/07/29 09:20:27;;;;;;;8.07;4.80;;;24.20;96.40;;;;;;5028164;28;20110;-72
2023/07/29 09:22:59;;;;;;;6.63;3.90;;;24.20;96.20;;;;;;5030519;28;20029;-72
2023/07/29 09:25:26;;;;;;;8.15;4.78;;;24.10;96.40;;;;;;5034916;28;20045;-72
2023/07/29 09:27:58;;;;;;;13.15;4.63;;;24.20;98.70;;;;;;5024922;28;20030;-72
2023/07/29 09:30:24;;;;;;;12.38;4.60;;;24.10;98.80;;;;;;5036068;28;20040;-71
2023/07/29 09:32:58;;;;;;;7.70;4.60;;;24.00;98.30;;;;;;5043855;28;20029;-72
2023/07/29 09:35:26;;;;;;;6.50;4.82;;;24.00;99.40;;;;;;5031363;28;20033;-73
2023/07/29 09:37:52;;;;;;;8.90;4.95;;;23.90;99.90;;;;;;5031472;28;20022;-72
2023/07/29 09:40:18;;;;;;;7.00;4.63;;;24.00;99.90;;;;;;5036816;28;20119;-72
2023/07/29 09:42:50;;;;;;;;;;;24.00;99.90;;;;;;5030069;28;20033;-72
2023/07/29 09:45:35;;;;;;;7.35;4.97;;;24.00;99.90;;;;;;5026183;28;19916;-72
2023/07/29 09:48:02;;;;;;;7.22;4.78;;;24.00;99.90;;;;;;5028995;28;20025;-72
2023/07/29 09:50:28;;;;;;;6.97;5.13;;;23.90;99.90;;;;;;5025238;28;20037;-71
2023/07/29 09:52:55;;;;;;;8.55;5.55;;;23.80;99.90;;;;;;5029687;28;20041;-72
2023/07/29 09:55:26;;;;;;;7.43;4.93;;;23.80;99.90;;;;;;5031095;28;20036;-72
2023/07/29 09:58:04;;;;;;;7.38;5.00;;;23.90;99.90;;;;;;5034730;28;20465;-72
2023/07/29 10:00:30;;;;;;;9.43;5.57;;;23.80;99.90;;;;;;5038293;28;20025;-71
2023/07/29 10:02:58;;;;;;;9.52;6.18;;;24.00;99.90;;;;;;5036170;28;20644;-72
2023/07/29 10:05:26;;;;;;;7.18;4.82;;;24.10;99.90;;;;;;5029730;28;20056;-73
2023/07/29 10:07:53;;;;;;;9.30;5.00;;;24.20;99.50;;;;;;5031619;28;20017;-73
2023/07/29 10:10:20;;;;;;;6.90;4.85;;;24.50;99.30;;;;;;5034672;28;20033;-72
2023/07/29 10:12:47;;;;;;;10.02;4.93;;;25.10;97.60;;;;;;5040708;28;20558;-73
2023/07/29 10:15:13;;;;;;;7.35;4.85;;;25.40;96.70;;;;;;5039899;28;20028;-72
2023/07/29 10:17:40;;;;;;;7.78;5.30;;;25.00;95.20;;;;;;5034563;28;20064;-72
2023/07/29 10:20:07;;;;;;;5.90;4.55;;;25.20;95.40;;;;;;5030356;28;20056;-72
2023/07/29 10:22:41;;;;;;;6.47;4.60;;;25.20;93.80;;;;;;5039322;28;20036;-74
2023/07/29 10:25:12;;;;;;;9.95;4.80;;;25.20;93.70;;;;;;5038466;28;20034;-70
2023/07/29 10:27:45;;;;;;;6.18;4.10;;;25.50;93.20;;;;;;5045894;28;20029;-72
2023/07/29 10:30:12;;;;;;;8.55;4.45;;;25.80;91.60;;;;;;5029975;28;20027;-73
2023/07/29 10:32:38;;;;;;;10.65;4.57;;;26.10;91.20;;;;;;5036585;28;20095;-73
2023/07/29 10:35:04;;;;;;;4.55;3.67;;;26.20;90.00;;;;;;5035956;28;20075;-73
2023/07/29 10:37:30;;;;;;;6.00;4.28;;;26.00;89.50;;;;;;5037579;28;20041;-76
2023/07/29 10:39:56;;;;;;;4.82;3.70;;;25.60;90.70;;;;;;5023924;28;20026;-74
2023/07/29 10:42:22;;;;;;;4.97;3.97;;;25.40;92.30;;;;;;5034003;28;20021;-75
2023/07/29 10:44:52;;;;;;;6.63;4.05;;;25.10;91.90;;;;;;5033307;28;20622;-74
2023/07/29 10:47:22;;;;;;;10.20;4.10;;;25.00;92.40;;;;;;5037984;28;20536;-74
2023/07/29 10:49:51;;;;;;;7.38;3.80;;;24.90;92.10;;;;;;5036933;28;20520;-75
2023/07/29 10:52:34;;;;;;;4.28;3.42;;;24.70;92.50;;;;;;5038296;28;20094;-71
2023/07/29 10:55:01;;;;;;;8.93;4.13;;;24.50;93.00;;;;;;5033156;28;20025;-76
2023/07/29 10:57:34;;;;;;;8.63;4.20;;;24.30;95.40;;;;;;5040269;28;20033;-72
2023/07/29 11:00:02;;;;;;;6.00;3.80;;;24.40;94.00;;;;;;5032212;28;20588;-75
2023/07/29 11:02:34;;;;;;;6.20;3.70;;;24.40;93.60;;;;;;5030104;28;20452;-75
2023/07/29 11:05:15;;;;;;;10.80;4.20;;;24.40;93.50;;;;;;5032487;28;20467;-71
2023/07/29 11:07:45;;;;;;;4.68;3.63;;;24.60;93.30;;;;;;5028957;28;20040;-73
2023/07/29 11:10:12;;;;;;;8.60;4.32;;;24.40;93.40;;;;;;5038581;28;20013;-73
2023/07/29 11:12:43;;;;;;;4.80;3.65;;;24.50;95.20;;;;;;5043035;28;20055;-70
2023/07/29 11:15:27;;;;;;;7.05;4.22;;;24.50;92.00;;;;;;5032076;28;20512;-75
2023/07/29 11:18:01;;;;;;;5.70;4.22;;;24.50;93.20;;;;;;5030972;28;20507;-75
2023/07/29 11:20:31;;;;;;;6.38;4.53;;;24.20;94.20;;;;;;5037261;28;20497;-74
2023/07/29 11:22:59;;;;;;;5.38;3.83;;;23.90;96.90;;;;;;5027556;28;20052;-75
2023/07/29 11:25:28;;;;;;;5.40;3.78;;;23.90;98.30;;;;;;5027940;28;20026;-75
2023/07/29 11:27:55;;;;;;;5.93;4.13;;;24.00;96.10;;;;;;5031976;28;20033;-74
2023/07/29 11:30:23;;;;;;;8.43;3.65;;;24.20;95.50;;;;;;5026182;28;20025;-74
2023/07/29 11:32:49;;;;;;;5.68;4.22;;;24.10;96.50;;;;;;5030985;28;20049;-73
2023/07/29 11:35:18;;;;;;;7.10;4.32;;;24.00;95.40;;;;;;5031403;28;20088;-74
2023/07/29 11:37:46;;;;;;;6.38;4.05;;;23.90;95.40;;;;;;5027283;28;20704;-73
2023/07/29 11:40:21;;;;;;;6.25;4.43;;;23.60;96.50;;;;;;5018749;28;20029;-73
2023/07/29 11:42:50;;;;;;;10.00;5.20;;;23.70;97.80;;;;;;5034765;28;20049;-73
2023/07/29 11:45:15;;;;;;;8.95;5.07;;;23.70;98.30;;;;;;5032760;28;20068;-71
2023/07/29 11:47:42;;;;;;;5.38;4.40;;;23.50;97.70;;;;;;5034473;28;20461;-74
2023/07/29 11:50:10;;;;;;;8.65;4.70;;;23.50;97.50;;;;;;5039656;28;20051;-74
2023/07/29 11:52:37;;;;;;;6.00;4.45;;;23.60;97.30;;;;;;5035257;28;20045;-73
2023/07/29 11:55:04;;;;;;;6.65;4.30;;;23.50;97.80;;;;;;5035307;28;20045;-73
2023/07/29 11:57:36;;;;;;;5.15;4.13;;;23.50;98.30;;;;;;5037295;28;20056;-72
2023/07/29 12:00:06;;;;;;;6.85;4.28;;;23.30;98.70;;;;;;5041088;28;20427;-70
2023/07/29 12:02:32;;;;;;;7.50;4.45;;;23.40;99.90;;;;;;5041183;28;20024;-71
2023/07/29 12:04:59;;;;;;;8.38;4.05;;;23.20;99.90;;;;;;5038041;28;20032;-72
2023/07/29 12:07:25;;;;;;;5.90;4.55;;;23.40;99.90;;;;;;5039184;28;20017;-70
2023/07/29 12:09:51;;;;;;;10.20;4.85;;;23.60;99.90;;;;;;5033009;28;20070;-73
2023/07/29 12:12:18;;;;;;;8.38;4.88;;;23.20;99.90;;;;;;5032787;28;20449;-70
2023/07/29 12:14:46;;;;;;;5.57;4.95;;;23.20;99.90;;;;;;5033367;28;20047;-69
2023/07/29 12:17:12;;;;;;;7.57;3.70;;;23.10;98.50;;;;;;5028664;28;20059;-72
2023/07/29 12:19:42;;;;;;;5.65;4.38;;;23.10;97.80;;;;;;5038304;28;20053;-73
2023/07/29 12:22:09;;;;;;;6.68;4.28;;;23.60;97.20;;;;;;5040698;28;20120;-72
2023/07/29 12:24:41;;;;;;;6.95;4.38;;;23.60;96.50;;;;;;5038575;28;20102;-71
2023/07/29 12:27:12;;;;;;;8.00;4.72;;;22.90;97.20;;;;;;5037906;28;20060;-71
2023/07/29 12:29:46;;;;;;;9.32;4.20;;;23.00;98.00;;;;;;5036685;28;20020;-73
2023/07/29 12:32:11;;;;;;;7.93;4.57;;;23.20;98.40;;;;;;5036274;28;20044;-69
2023/07/29 12:34:41;;;;;;;6.78;4.30;;;23.30;98.50;;;;;;5039889;28;20029;-69
2023/07/29 12:37:07;;;;;;;5.10;3.97;;;22.90;98.80;;;;;;5038578;28;20044;-72
2023/07/29 12:39:34;;;;;;;6.30;4.35;;;23.00;99.90;;;;;;5038919;28;20033;-68
2023/07/29 12:42:02;;;;;;;9.30;5.28;;;23.00;99.90;;;;;;5037948;28;20290;-70
2023/07/29 12:44:35;;;;;;;8.25;4.90;;;22.90;99.90;;;;;;5039765;28;20035;-68
2023/07/29 12:47:02;;;;;;;8.40;4.50;;;22.90;99.90;;;;;;5040667;28;20112;-69
2023/07/29 12:49:29;;;;;;;9.95;4.70;;;23.20;99.90;;;;;;5038188;28;20033;-72